createdAt,value
2018-10-16T00:00:56.133Z,94.55
2018-10-16T00:03:24.264Z,94.63
2018-10-16T00:05:52.392Z,95.06
2018-10-16T00:08:20.541Z,95.01
2018-10-16T00:10:48.709Z,94.93
2018-10-16T00:13:16.862Z,96.00
2018-10-16T00:15:45.018Z,96.20
2018-10-16T00:18:13.274Z,96.22
2018-10-16T00:20:41.797Z,95.90
2018-10-16T00:23:10.988Z,95.96
2018-10-16T00:25:39.224Z,95.89
2018-10-16T00:28:07.777Z,95.44
2018-10-16T00:30:35.920Z,95.05
2018-10-16T00:33:05.025Z,94.92
2018-10-16T00:35:33.157Z,94.82
2018-10-16T00:38:01.265Z,95.04
2018-10-16T00:40:29.401Z,94.95
2018-10-16T00:42:57.518Z,95.52
2018-10-16T00:45:25.705Z,94.99
2018-10-16T00:47:53.817Z,94.33
2018-10-16T00:50:21.945Z,93.94
2018-10-16T00:52:50.113Z,95.20
2018-10-16T00:55:18.263Z,95.76
2018-10-16T00:57:46.396Z,96.63
2018-10-16T01:00:14.548Z,96.76
2018-10-16T01:02:43.504Z,96.42
2018-10-16T01:05:12.493Z,96.55
2018-10-16T01:07:41.285Z,95.96
2018-10-16T01:10:10.288Z,96.27
2018-10-16T01:12:39.177Z,96.15
2018-10-16T01:15:08.445Z,96.35
2018-10-16T01:17:36.640Z,96.56
2018-10-16T01:20:05.456Z,96.08
2018-10-16T01:22:33.593Z,96.42
2018-10-16T01:25:01.741Z,96.85
2018-10-16T01:27:29.846Z,97.05
2018-10-16T01:29:57.969Z,97.16
2018-10-16T01:32:26.125Z,97.54
2018-10-16T01:34:54.266Z,98.18
2018-10-16T01:37:22.408Z,98.06
2018-10-16T01:39:50.592Z,98.00
2018-10-16T01:42:18.718Z,97.84
2018-10-16T01:44:46.852Z,97.45
2018-10-16T01:47:15.027Z,97.58
2018-10-16T01:49:43.161Z,96.60
2018-10-16T01:52:11.336Z,95.78
2018-10-16T01:54:39.479Z,95.46
2018-10-16T01:57:07.587Z,96.54
2018-10-16T01:59:35.716Z,97.18
2018-10-16T02:02:04.033Z,97.10
2018-10-16T02:04:32.138Z,97.19
2018-10-16T02:07:00.281Z,97.11
2018-10-16T02:09:28.456Z,97.12
2018-10-16T02:11:56.574Z,97.00
2018-10-16T02:14:24.710Z,96.33
2018-10-16T02:16:52.921Z,96.58
2018-10-16T02:19:21.087Z,97.01
2018-10-16T02:21:49.246Z,97.98
2018-10-16T02:24:17.384Z,97.77
2018-10-16T02:26:45.828Z,97.99
2018-10-16T02:29:13.953Z,97.90
2018-10-16T02:31:42.161Z,97.83
2018-10-16T02:34:10.310Z,97.88
2018-10-16T02:36:38.481Z,97.86
2018-10-16T02:39:07.976Z,97.54
2018-10-16T02:41:36.175Z,97.76
2018-10-16T02:44:04.573Z,98.07
2018-10-16T02:46:32.737Z,97.95
2018-10-16T02:49:00.901Z,97.90
2018-10-16T02:51:29.022Z,97.83
2018-10-16T02:53:57.195Z,98.10
2018-10-16T02:56:25.356Z,98.50
2018-10-16T02:58:53.489Z,98.09
2018-10-16T03:01:21.664Z,97.96
2018-10-16T03:03:49.821Z,98.17
2018-10-16T03:06:17.975Z,97.97
2018-10-16T03:08:46.072Z,97.28
2018-10-16T03:11:14.220Z,97.67
2018-10-16T03:13:43.502Z,97.74
2018-10-16T03:16:11.651Z,97.22
2018-10-16T03:18:39.779Z,97.01
2018-10-16T03:21:07.933Z,97.62
2018-10-16T03:23:36.082Z,97.62
2018-10-16T03:26:04.164Z,98.15
2018-10-16T03:28:32.486Z,98.50
2018-10-16T03:31:00.603Z,98.08
2018-10-16T03:33:28.713Z,98.11
2018-10-16T03:35:56.887Z,98.14
2018-10-16T03:38:25.063Z,97.41
2018-10-16T03:40:53.201Z,95.67
2018-10-16T03:43:21.386Z,95.62
2018-10-16T03:45:49.496Z,95.38
2018-10-16T03:48:17.655Z,96.11
2018-10-16T03:50:45.795Z,96.14
2018-10-16T03:53:13.948Z,96.57
2018-10-16T03:55:42.076Z,97.25
2018-10-16T03:58:10.196Z,97.69
2018-10-16T04:00:38.337Z,98.31
2018-10-16T04:03:06.518Z,99.08
2018-10-16T04:05:34.798Z,98.81
2018-10-16T04:08:03.022Z,98.75
2018-10-16T04:10:31.224Z,98.77
2018-10-16T04:12:59.396Z,98.61
2018-10-16T04:15:27.533Z,97.96
2018-10-16T04:17:55.659Z,97.92
2018-10-16T04:20:23.785Z,98.63
2018-10-16T04:22:52.265Z,99.14
2018-10-16T04:25:20.413Z,99.22
2018-10-16T04:27:48.604Z,99.16
2018-10-16T04:30:16.710Z,98.86
2018-10-16T04:32:44.840Z,99.17
2018-10-16T04:35:16.157Z,99.85
2018-10-16T04:37:45.015Z,100.00
2018-10-16T04:40:13.426Z,99.53
2018-10-16T04:42:42.199Z,99.31
2018-10-16T04:45:11.584Z,98.84
2018-10-16T04:47:40.403Z,99.28
2018-10-16T04:50:09.506Z,99.07
2018-10-16T04:52:37.703Z,99.14
2018-10-16T04:55:05.970Z,99.75
2018-10-16T04:57:34.122Z,99.19
2018-10-16T05:00:02.276Z,98.87
2018-10-16T05:02:30.492Z,99.26
2018-10-16T05:04:58.684Z,99.03
2018-10-16T05:07:26.856Z,98.64
2018-10-16T05:09:54.997Z,98.00
2018-10-16T05:12:23.100Z,98.39
2018-10-16T05:14:51.244Z,98.62
2018-10-16T05:17:19.404Z,98.50
2018-10-16T05:19:47.560Z,96.90
2018-10-16T05:22:15.690Z,96.85
2018-10-16T05:24:43.877Z,97.80
2018-10-16T05:27:12.266Z,98.09
2018-10-16T05:29:40.413Z,99.50
2018-10-16T05:32:08.562Z,99.72
2018-10-16T05:34:36.742Z,99.94
2018-10-16T05:37:05.277Z,99.80
2018-10-16T05:39:33.483Z,99.57
2018-10-16T05:42:01.657Z,99.91
2018-10-16T05:44:29.799Z,98.45
2018-10-16T05:46:57.968Z,98.86
2018-10-16T05:49:26.073Z,99.24
2018-10-16T05:51:54.239Z,99.31
2018-10-16T05:54:22.463Z,99.60
2018-10-16T05:56:50.620Z,99.91
2018-10-16T05:59:18.805Z,99.61
2018-10-16T06:01:46.910Z,99.85
2018-10-16T06:04:15.013Z,100.00
2018-10-16T06:06:43.183Z,100.00
2018-10-16T06:09:11.301Z,100.00
2018-10-16T06:11:39.489Z,100.00
2018-10-16T06:14:08.052Z,100.00
2018-10-16T06:16:36.308Z,100.00
2018-10-16T06:19:04.486Z,100.00
2018-10-16T06:21:32.659Z,100.00
2018-10-16T06:24:00.799Z,100.00
2018-10-16T06:26:28.997Z,100.00
2018-10-16T06:28:57.059Z,100.00
2018-10-16T06:31:25.227Z,100.00
2018-10-16T06:33:53.409Z,100.00
2018-10-16T06:36:21.572Z,100.00
2018-10-16T06:38:49.709Z,99.50
2018-10-16T06:41:17.924Z,99.99
2018-10-16T06:43:46.060Z,100.00
2018-10-16T06:46:14.163Z,100.00
2018-10-16T06:48:42.640Z,100.00
2018-10-16T06:51:10.489Z,99.32
2018-10-16T06:53:39.684Z,98.97
2018-10-16T06:56:07.839Z,97.81
2018-10-16T06:58:35.993Z,97.87
2018-10-16T07:01:04.169Z,97.57
2018-10-16T07:03:32.365Z,96.66
2018-10-16T07:06:00.542Z,95.69
2018-10-16T07:08:28.687Z,94.99
2018-10-16T07:10:56.844Z,95.61
2018-10-16T07:13:24.981Z,95.76
2018-10-16T07:15:53.169Z,95.62
2018-10-16T07:18:21.317Z,94.31
2018-10-16T07:20:49.491Z,92.69
2018-10-16T07:23:17.699Z,92.63
2018-10-16T07:25:45.796Z,92.32
2018-10-16T07:28:13.960Z,91.98
2018-10-16T07:30:42.102Z,91.42
2018-10-16T07:33:10.266Z,91.27
2018-10-16T07:35:38.441Z,91.00
2018-10-16T07:38:06.830Z,91.38
2018-10-16T07:40:34.825Z,90.31
2018-10-16T07:43:02.958Z,91.26
2018-10-16T07:45:31.137Z,92.40
2018-10-16T07:47:59.321Z,91.53
2018-10-16T07:50:27.494Z,90.86
2018-10-16T07:52:55.687Z,89.72
2018-10-16T07:55:23.863Z,90.10
2018-10-16T07:57:51.977Z,88.12
2018-10-16T08:00:20.137Z,87.55
2018-10-16T08:02:48.274Z,85.61
2018-10-16T08:05:16.438Z,85.03
2018-10-16T08:07:44.816Z,85.74
2018-10-16T08:10:14.404Z,84.93
2018-10-16T08:12:43.201Z,84.79
2018-10-16T08:15:11.684Z,84.48
2018-10-16T08:17:40.457Z,84.69
2018-10-16T08:20:08.708Z,84.74
2018-10-16T08:22:36.886Z,84.29
2018-10-16T08:25:05.648Z,83.94
2018-10-16T08:27:33.792Z,83.76
2018-10-16T08:30:01.971Z,83.92
2018-10-16T08:32:30.033Z,83.83
2018-10-16T08:34:58.456Z,85.69
2018-10-16T08:38:35.586Z,85.97
2018-10-16T08:41:04.824Z,84.81
2018-10-16T08:43:47.091Z,85.13
2018-10-16T08:46:27.145Z,84.24
2018-10-16T08:49:06.981Z,84.39
2018-10-16T08:51:43.773Z,84.85
2018-10-16T08:54:11.927Z,84.63
2018-10-16T08:56:40.049Z,85.04
2018-10-16T08:59:08.213Z,84.64
2018-10-16T09:01:36.352Z,84.62
2018-10-16T09:04:04.608Z,85.03
2018-10-16T09:06:33.088Z,84.37
2018-10-16T09:09:01.741Z,84.23
2018-10-16T09:11:29.945Z,83.40
2018-10-16T09:13:58.157Z,82.92
2018-10-16T09:16:26.232Z,81.61
2018-10-16T09:18:54.361Z,81.73
2018-10-16T09:21:22.512Z,81.28
2018-10-16T09:23:50.643Z,82.01
2018-10-16T09:26:19.461Z,81.06
2018-10-16T09:28:47.606Z,80.77
2018-10-16T09:31:15.750Z,80.51
2018-10-16T09:33:43.893Z,80.83
2018-10-16T09:36:12.041Z,80.67
2018-10-16T09:38:40.226Z,81.34
2018-10-16T09:41:08.514Z,80.96
2018-10-16T09:43:36.680Z,80.77
2018-10-16T09:46:04.962Z,80.80
2018-10-16T09:48:33.114Z,80.83
2018-10-16T09:51:01.281Z,80.33
2018-10-16T09:53:29.412Z,80.46
2018-10-16T09:55:57.554Z,80.78
2018-10-16T09:58:25.895Z,81.16
2018-10-16T10:00:59.485Z,80.59
2018-10-16T10:03:27.636Z,80.29
2018-10-16T10:05:55.821Z,80.29
2018-10-16T10:08:24.020Z,80.27
2018-10-16T10:10:52.198Z,80.18
2018-10-16T10:13:20.308Z,80.19
2018-10-16T10:15:48.488Z,79.82
2018-10-16T10:18:16.735Z,79.93
2018-10-16T10:20:44.938Z,79.67
2018-10-16T10:23:13.068Z,79.04
2018-10-16T10:25:41.398Z,79.48
2018-10-16T10:28:09.565Z,79.58
2018-10-16T10:30:37.727Z,79.80
2018-10-16T10:33:05.868Z,79.48
2018-10-16T10:35:34.057Z,79.41
2018-10-16T10:38:02.209Z,79.52
2018-10-16T10:40:30.382Z,79.08
2018-10-16T10:42:58.513Z,78.67
2018-10-16T10:45:26.695Z,78.13
2018-10-16T10:47:54.877Z,78.40
2018-10-16T10:50:23.238Z,78.38
2018-10-16T10:52:51.214Z,79.09
2018-10-16T10:55:19.369Z,79.26
2018-10-16T10:57:47.526Z,79.38
2018-10-16T11:00:15.710Z,79.26
2018-10-16T11:02:45.500Z,79.44
2018-10-16T11:05:13.659Z,79.21
2018-10-16T11:07:41.872Z,80.01
2018-10-16T11:10:11.737Z,79.31
2018-10-16T11:12:40.068Z,79.35
2018-10-16T11:15:08.429Z,79.03
2018-10-16T11:17:37.196Z,79.56
2018-10-16T11:20:06.101Z,79.29
2018-10-16T11:22:34.245Z,78.76
2018-10-16T11:25:02.374Z,79.11
2018-10-16T11:27:30.512Z,79.08
2018-10-16T11:29:58.739Z,78.34
2018-10-16T11:32:26.828Z,78.70
2018-10-16T11:34:55.038Z,77.84
2018-10-16T11:37:23.215Z,77.70
2018-10-16T11:39:51.371Z,78.15
2018-10-16T11:42:19.527Z,78.51
2018-10-16T11:44:47.684Z,78.05
2018-10-16T11:47:15.850Z,78.28
2018-10-16T11:49:43.961Z,77.21
2018-10-16T11:52:12.183Z,77.10
2018-10-16T11:54:40.305Z,77.40
2018-10-16T11:57:08.493Z,77.13
2018-10-16T11:59:36.664Z,76.72
2018-10-16T12:02:04.895Z,77.44
2018-10-16T12:04:32.982Z,76.75
2018-10-16T12:07:01.168Z,77.47
2018-10-16T12:09:29.319Z,77.57
2018-10-16T12:11:57.466Z,78.00
2018-10-16T12:14:25.634Z,77.30
2018-10-16T12:17:00.185Z,77.40
2018-10-16T12:19:33.627Z,78.01
2018-10-16T12:22:01.803Z,78.26
2018-10-16T12:24:29.940Z,78.52
2018-10-16T12:26:58.123Z,78.04
2018-10-16T12:29:26.227Z,78.20
2018-10-16T12:31:54.397Z,78.56
2018-10-16T12:34:22.532Z,78.43
2018-10-16T12:36:50.738Z,78.79
2018-10-16T12:39:18.931Z,78.68
2018-10-16T12:41:46.989Z,78.66
2018-10-16T12:44:15.152Z,78.96
2018-10-16T12:46:43.321Z,78.38
2018-10-16T12:49:11.472Z,78.50
2018-10-16T12:51:39.629Z,79.18
2018-10-16T12:54:07.808Z,78.98
2018-10-16T12:56:35.985Z,79.48
2018-10-16T12:59:04.160Z,79.17
2018-10-16T13:01:32.269Z,79.29
2018-10-16T13:04:00.425Z,79.70
2018-10-16T13:06:28.602Z,79.83
2018-10-16T13:08:56.964Z,79.29
2018-10-16T13:11:25.109Z,80.34
2018-10-16T13:13:53.382Z,79.50
2018-10-16T13:16:21.593Z,79.87
2018-10-16T13:18:49.757Z,79.99
2018-10-16T13:21:17.916Z,79.57
2018-10-16T13:23:46.132Z,79.05
2018-10-16T13:26:14.381Z,80.25
2018-10-16T13:28:42.405Z,79.49
2018-10-16T13:31:10.560Z,79.36
2018-10-16T13:33:39.624Z,79.41
2018-10-16T13:36:07.799Z,79.51
2018-10-16T13:38:35.981Z,79.46
2018-10-16T13:41:04.105Z,78.76
2018-10-16T13:43:32.285Z,79.71
2018-10-16T13:46:00.530Z,79.49
2018-10-16T13:48:28.632Z,79.30
2018-10-16T13:50:56.788Z,79.10
2018-10-16T13:53:24.974Z,79.47
2018-10-16T13:55:53.162Z,79.53
2018-10-16T13:58:21.341Z,80.21
2018-10-16T14:00:49.531Z,79.63
2018-10-16T14:03:17.685Z,79.63
2018-10-16T14:05:45.857Z,79.47
2018-10-16T14:08:14.112Z,79.54
2018-10-16T14:10:42.185Z,79.71
2018-10-16T14:13:10.345Z,79.60
2018-10-16T14:15:38.513Z,80.13
2018-10-16T14:18:06.687Z,80.66
2018-10-16T14:20:34.864Z,81.03
2018-10-16T14:23:03.013Z,81.44
2018-10-16T14:25:31.252Z,81.52
2018-10-16T14:27:59.609Z,81.87
2018-10-16T14:30:27.701Z,81.94
2018-10-16T14:32:55.874Z,82.09
2018-10-16T14:35:24.054Z,82.23
2018-10-16T14:37:52.265Z,82.12
2018-10-16T14:40:20.450Z,82.11
2018-10-16T14:42:48.541Z,82.39
2018-10-16T14:45:16.709Z,82.85
2018-10-16T14:47:44.921Z,82.07
2018-10-16T14:50:14.280Z,82.30
2018-10-16T14:52:42.446Z,82.55
2018-10-16T14:55:10.641Z,82.59
2018-10-16T14:57:38.844Z,82.63
2018-10-16T15:00:08.949Z,82.74
2018-10-16T15:02:37.128Z,82.58
2018-10-16T15:05:06.247Z,82.94
2018-10-16T15:07:34.409Z,82.83
2018-10-16T15:10:02.737Z,82.94
2018-10-16T15:12:31.429Z,82.05
2018-10-16T15:15:00.258Z,82.42
2018-10-16T15:17:29.253Z,82.70
2018-10-16T15:19:57.640Z,82.62
2018-10-16T15:22:25.795Z,82.17
2018-10-16T15:24:54.036Z,82.07
2018-10-16T15:27:22.690Z,82.44
2018-10-16T15:29:51.151Z,82.34
2018-10-16T15:32:19.329Z,82.79
2018-10-16T15:34:48.052Z,82.76
2018-10-16T15:37:16.813Z,82.32
2018-10-16T15:39:44.975Z,82.38
2018-10-16T15:42:13.280Z,83.20
2018-10-16T15:44:41.356Z,84.46
2018-10-16T15:47:09.481Z,83.98
2018-10-16T15:49:37.601Z,83.17
2018-10-16T15:52:06.392Z,83.69
2018-10-16T15:54:34.532Z,84.06
2018-10-16T15:57:02.657Z,83.98
2018-10-16T15:59:30.817Z,84.79
2018-10-16T16:01:58.974Z,84.70
2018-10-16T16:04:27.172Z,86.05
2018-10-16T16:06:55.413Z,86.80
2018-10-16T16:09:23.557Z,87.83
2018-10-16T16:11:51.708Z,88.13
2018-10-16T16:14:19.889Z,87.85
2018-10-16T16:16:48.018Z,88.47
2018-10-16T16:19:16.197Z,88.47
2018-10-16T16:21:44.376Z,89.19
2018-10-16T16:24:12.590Z,88.97
2018-10-16T16:26:40.717Z,89.27
2018-10-16T16:29:08.913Z,89.12
2018-10-16T16:31:37.063Z,89.35
2018-10-16T16:34:05.589Z,88.81
2018-10-16T16:36:33.744Z,89.06
2018-10-16T16:39:10.606Z,89.02
2018-10-16T16:41:38.722Z,89.08
2018-10-16T16:44:06.984Z,89.73
2018-10-16T16:46:35.106Z,89.85
2018-10-16T16:49:03.285Z,89.76
2018-10-16T16:51:31.444Z,89.71
2018-10-16T16:53:59.611Z,89.65
2018-10-16T16:56:27.764Z,89.48
2018-10-16T16:58:55.988Z,89.98
2018-10-16T17:01:24.140Z,90.30
2018-10-16T17:03:52.315Z,90.91
2018-10-16T17:06:20.421Z,90.89
2018-10-16T17:08:48.612Z,90.94
2018-10-16T17:11:16.747Z,91.45
2018-10-16T17:13:44.917Z,92.11
2018-10-16T17:16:13.143Z,93.06
2018-10-16T17:18:41.201Z,93.69
2018-10-16T17:21:09.360Z,93.67
2018-10-16T17:23:37.960Z,93.97
2018-10-16T17:26:06.618Z,93.55
2018-10-16T17:28:34.359Z,93.40
2018-10-16T17:31:02.557Z,93.48
2018-10-16T17:33:39.768Z,93.62
2018-10-16T17:36:12.512Z,93.84
2018-10-16T17:38:41.412Z,93.68
2018-10-16T17:41:09.705Z,94.14
2018-10-16T17:48:37.775Z,94.66
2018-10-16T17:51:05.979Z,94.47
2018-10-16T17:53:34.174Z,95.14
2018-10-16T17:56:02.382Z,95.35
2018-10-16T17:58:30.785Z,95.17
2018-10-16T18:00:59.045Z,95.54
2018-10-16T18:03:27.277Z,95.38
2018-10-16T18:05:55.454Z,95.59
2018-10-16T18:08:23.611Z,95.26
2018-10-16T18:10:51.797Z,95.51
2018-10-16T18:13:20.017Z,95.93
2018-10-16T18:15:48.175Z,95.07
2018-10-16T18:18:16.410Z,95.34
2018-10-16T18:20:44.463Z,95.36
2018-10-16T18:23:12.625Z,95.84
2018-10-16T18:25:40.789Z,95.41
2018-10-16T18:28:08.993Z,95.64
2018-10-16T18:30:37.115Z,95.85
2018-10-16T18:33:05.630Z,95.86
2018-10-16T18:35:33.865Z,95.95
2018-10-16T18:38:02.120Z,95.97
2018-10-16T18:40:30.265Z,95.57
2018-10-16T18:42:58.440Z,95.79
2018-10-16T18:45:26.625Z,95.71
2018-10-16T18:47:54.871Z,95.72
2018-10-16T18:50:23.114Z,95.86
2018-10-16T18:52:51.307Z,95.76
2018-10-16T18:55:19.613Z,96.33
2018-10-16T18:57:47.704Z,96.15
2018-10-16T19:00:18.100Z,96.00
2018-10-16T19:02:47.004Z,97.25
2018-10-16T19:05:15.263Z,98.45
2018-10-16T19:07:43.533Z,98.82
2018-10-16T19:10:11.837Z,99.57
2018-10-16T19:12:40.829Z,100.00
2018-10-16T19:15:10.788Z,99.86
2018-10-16T19:17:38.903Z,99.50
2018-10-16T19:20:08.352Z,99.13
2018-10-16T19:22:36.706Z,98.57
2018-10-16T19:25:05.237Z,98.11
2018-10-16T19:27:33.482Z,97.77
2018-10-16T19:30:01.650Z,97.46
2018-10-16T19:32:29.804Z,97.04
2018-10-16T19:36:01.041Z,96.97
2018-10-16T19:38:29.243Z,97.49
2018-10-16T19:40:57.537Z,97.22
2018-10-16T19:43:25.784Z,96.91
2018-10-16T19:45:53.987Z,97.69
2018-10-16T19:48:22.238Z,98.89
2018-10-16T19:50:50.532Z,100.00
2018-10-16T19:53:18.647Z,100.00
2018-10-16T19:55:46.856Z,99.92
2018-10-16T19:58:15.028Z,99.51
2018-10-16T20:03:17.618Z,100.00
2018-10-16T20:05:45.773Z,100.00
2018-10-16T20:08:14.049Z,100.00
2018-10-16T20:10:48.751Z,100.00
2018-10-16T20:13:16.902Z,100.00
2018-10-16T20:15:45.207Z,100.00
2018-10-16T20:18:13.269Z,100.00
2018-10-16T20:20:42.366Z,100.00
2018-10-16T20:23:10.557Z,100.00
2018-10-16T20:25:38.810Z,100.00
2018-10-16T20:28:06.982Z,100.00
2018-10-16T20:30:35.097Z,100.00
2018-10-16T20:33:03.237Z,100.00
2018-10-16T20:35:31.417Z,100.00
2018-10-16T20:37:59.698Z,100.00
2018-10-16T20:40:27.973Z,100.00
2018-10-16T20:42:56.132Z,100.00
2018-10-16T20:45:24.352Z,100.00
2018-10-16T20:47:52.530Z,100.00
2018-10-16T20:50:20.717Z,100.00
2018-10-16T20:52:48.893Z,100.00
2018-10-16T20:55:17.375Z,100.00
2018-10-16T20:57:45.602Z,100.00
2018-10-16T21:00:13.763Z,100.00
2018-10-16T21:02:41.921Z,100.00
2018-10-16T21:05:10.546Z,100.00
2018-10-16T21:07:38.749Z,100.00
2018-10-16T21:10:07.516Z,100.00
2018-10-16T21:12:36.053Z,100.00
2018-10-16T21:15:04.227Z,100.00
2018-10-16T21:17:32.384Z,100.00
2018-10-16T21:20:00.557Z,100.00
2018-10-16T21:22:28.685Z,100.00
2018-10-16T21:24:56.932Z,100.00
2018-10-16T21:27:25.001Z,100.00
2018-10-16T21:29:53.141Z,100.00
2018-10-16T21:32:21.348Z,100.00
2018-10-16T21:34:49.520Z,100.00
2018-10-16T21:37:17.682Z,100.00
2018-10-16T21:39:45.813Z,100.00
2018-10-16T21:42:13.966Z,100.00
2018-10-16T21:44:42.120Z,100.00
2018-10-16T21:47:10.315Z,100.00
2018-10-16T21:49:38.373Z,100.00
2018-10-16T21:52:06.495Z,100.00
2018-10-16T21:54:34.653Z,100.00
2018-10-16T21:57:02.823Z,100.00
2018-10-16T21:59:31.065Z,100.00
2018-10-16T22:02:04.552Z,100.00
2018-10-16T22:04:32.717Z,100.00
2018-10-16T22:07:00.877Z,100.00
2018-10-16T22:09:28.999Z,100.00
2018-10-16T22:11:58.049Z,100.00
2018-10-16T22:14:26.179Z,100.00
2018-10-16T22:16:54.366Z,100.00
2018-10-16T22:19:22.424Z,100.00
2018-10-16T22:21:50.532Z,100.00
2018-10-16T22:24:18.686Z,100.00
2018-10-16T22:26:46.825Z,100.00
2018-10-16T22:29:15.101Z,100.00
2018-10-16T22:31:43.168Z,100.00
2018-10-16T22:34:11.341Z,100.00
2018-10-16T22:36:39.516Z,100.00
2018-10-16T22:39:08.865Z,100.00
2018-10-16T22:41:37.096Z,100.00
2018-10-16T22:44:05.840Z,100.00
2018-10-16T22:46:34.235Z,100.00
2018-10-16T22:49:02.407Z,100.00
2018-10-16T22:51:30.529Z,100.00
2018-10-16T22:53:58.670Z,100.00
2018-10-16T22:56:26.824Z,100.00
2018-10-16T22:58:55.011Z,100.00
2018-10-16T23:01:23.321Z,100.00
2018-10-16T23:03:51.456Z,100.00
2018-10-16T23:06:19.705Z,100.00
2018-10-16T23:08:47.892Z,100.00
2018-10-16T23:11:16.118Z,100.00
2018-10-16T23:13:44.182Z,100.00
2018-10-16T23:16:12.353Z,100.00
2018-10-16T23:18:40.533Z,100.00
2018-10-16T23:21:08.696Z,100.00
2018-10-16T23:23:36.892Z,100.00
2018-10-16T23:26:05.248Z,100.00
2018-10-16T23:28:33.429Z,100.00
2018-10-16T23:31:01.655Z,100.00
2018-10-16T23:33:29.740Z,100.00
2018-10-16T23:35:57.890Z,100.00
2018-10-16T23:38:26.066Z,100.00
2018-10-16T23:40:54.220Z,100.00
2018-10-16T23:43:22.514Z,100.00
2018-10-16T23:45:50.603Z,100.00
2018-10-16T23:48:18.728Z,100.00
2018-10-16T23:50:46.890Z,100.00
2018-10-16T23:53:15.126Z,100.00
2018-10-16T23:55:43.152Z,100.00
2018-10-16T23:58:11.289Z,100.00
